Time;durP1;ratioP1;P1;durP2;ratioP2;P2;SDS_P1;SDS_P2;PMS_P1;PMS_P2;Temp;Humidity;BMP_temperature;BMP_pressure;BME280_temperature;BME280_humidity;BME280_pressure;Samples;Min_cycle;Max_cycle;Signal;HPM_P1;HPM_P2
2023/05/21 00:01:06;;;;;;;;;13.00;11.67;;;;;18.73;50.48;101064.50;5011751;28;45027;-67
2023/05/21 00:03:32;;;;;;;;;13.00;13.00;;;;;18.58;50.54;101038.38;5012273;28;45078;-68
2023/05/21 00:06:00;;;;;;;;;12.00;10.33;;;;;18.82;50.76;101096.03;4995017;28;45222;-69
2023/05/21 00:08:25;;;;;;;;;12.33;11.00;;;;;18.82;50.88;101102.34;5014271;28;45521;-68
2023/05/21 00:10:50;;;;;;;;;16.00;13.00;;;;;18.82;50.69;101098.75;5013562;28;45051;-68
2023/05/21 00:13:16;;;;;;;;;10.33;10.00;;;;;18.74;51.10;101078.03;5011740;28;45024;-68
2023/05/21 00:15:41;;;;;;;;;15.33;11.00;;;;;18.78;51.07;101081.63;5012248;28;44943;-66
2023/05/21 00:18:08;;;;;;;;;16.00;12.33;;;;;18.82;50.56;101088.81;5013857;28;45329;-68
2023/05/21 00:20:33;;;;;;;;;12.00;10.00;;;;;18.79;51.19;101089.75;5013582;28;45391;-69
2023/05/21 00:23:01;;;;;;;;;11.00;10.67;;;;;18.76;51.22;101075.31;5012364;28;45169;-68
2023/05/21 00:25:27;;;;;;;;;15.00;11.67;;;;;18.73;51.31;101084.31;5012741;28;45119;-69
2023/05/21 00:27:53;;;;;;;;;14.67;12.33;;;;;18.67;51.44;101072.63;5009837;28;45258;-68
2023/05/21 00:30:19;;;;;;;;;14.00;12.00;;;;;18.64;51.34;101089.75;4996145;28;45154;-68
2023/05/21 00:32:44;;;;;;;;;10.33;10.33;;;;;18.59;51.98;101078.03;5012878;28;45296;-68
2023/05/21 00:35:09;;;;;;;;;15.33;13.67;;;;;18.56;52.08;101084.38;5013135;28;50548;-69
2023/05/21 00:37:35;;;;;;;;;14.33;11.33;;;;;18.57;52.34;101078.03;5012028;28;46226;-68
2023/05/21 00:40:01;;;;;;;;;11.67;9.67;;;;;18.54;51.82;101077.13;4970054;28;45566;-69
2023/05/21 00:42:29;;;;;;;;;13.33;13.33;;;;;18.53;52.27;101080.78;5011317;28;45062;-68
2023/05/21 00:44:55;;;;;;;;;14.67;14.67;;;;;18.49;52.11;101074.44;5010723;28;45256;-70
2023/05/21 00:47:20;;;;;;;;;12.67;11.33;;;;;18.45;52.64;101060.94;5013042;28;46297;-67
2023/05/21 00:49:47;;;;;;;;;15.33;11.67;;;;;18.46;52.16;101052.78;5014082;28;45134;-68
2023/05/21 00:52:13;;;;;;;;;13.50;12.25;;;;;18.40;52.53;101051.00;5014765;28;45216;-69
2023/05/21 00:54:40;;;;;;;;;13.75;10.75;;;;;18.43;52.49;101058.22;5014460;28;45010;-69
2023/05/21 00:57:05;;;;;;;;;17.25;13.50;;;;;18.40;52.51;101059.13;5012649;28;45912;-68
2023/05/21 00:59:32;;;;;;;;;14.67;12.67;;;;;18.34;52.80;101055.53;5003110;28;45141;-68
2023/05/21 01:02:04;;;;;;;;;12.00;12.00;;;;;18.30;53.01;101051.91;5011553;28;44958;-69
2023/05/21 01:04:30;;;;;;;;;15.50;12.25;;;;;18.28;52.86;101058.22;5011707;28;45137;-68
2023/05/21 01:06:57;;;;;;;;;14.25;14.25;;;;;18.26;53.06;101060.91;5003770;28;45539;-67
2023/05/21 01:09:24;;;;;;;;;15.67;11.67;;;;;18.24;53.25;101057.31;5005677;28;45287;-67
2023/05/21 01:11:50;;;;;;;;;15.50;11.50;;;;;18.22;53.32;101045.63;5013525;28;45270;-68
2023/05/21 01:14:17;;;;;;;;;12.25;12.00;;;;;18.21;53.29;101052.84;4991760;28;45194;-68
2023/05/21 01:16:45;;;;;;;;;12.67;11.33;;;;;18.15;53.16;101044.72;5012614;28;45522;-68
2023/05/21 01:19:20;;;;;;;;;17.00;14.00;;;;;18.21;53.36;101055.53;5013060;28;45155;-67
2023/05/21 01:21:55;;;;;;;;;11.33;11.33;;;;;18.09;53.31;101025.78;5013748;28;44967;-68
2023/05/21 01:24:20;;;;;;;;;18.00;13.50;;;;;18.21;53.27;101054.63;5001593;28;45198;-67
2023/05/21 01:26:46;;;;;;;;;11.75;11.75;;;;;18.08;53.16;101033.88;4995215;28;46565;-69
2023/05/21 01:29:13;;;;;;;;;21.50;14.75;;;;;18.19;53.07;101053.72;5013100;28;45152;-68
2023/05/21 01:32:03;;;;;;;;;16.67;12.00;;;;;18.18;53.33;101057.31;5010652;28;45089;-69
2023/05/21 01:34:36;;;;;;;;;11.25;11.25;;;;;18.17;53.35;101067.25;4981459;28;45352;-68
2023/05/21 01:37:16;;;;;;;;;18.67;14.33;;;;;18.04;53.42;101050.09;5009877;28;45666;-67
2023/05/21 01:39:48;;;;;;;;;16.75;15.75;;;;;18.07;53.88;101062.75;5011025;28;45148;-67
2023/05/21 01:42:17;;;;;;;;;18.25;15.75;;;;;18.05;53.56;101061.84;4999487;28;44952;-68
2023/05/21 01:44:43;;;;;;;;;19.50;16.00;;;;;18.11;53.65;101063.63;5011505;28;45354;-68
2023/05/21 01:47:09;;;;;;;;;11.75;11.25;;;;;18.12;53.71;101063.63;5009263;28;45062;-68
2023/05/21 01:49:36;;;;;;;;;17.25;16.25;;;;;18.06;54.00;101055.50;5009960;28;45014;-68
2023/05/21 01:52:01;;;;;;;;;17.50;16.25;;;;;18.07;53.73;101062.75;5004600;28;45299;-68
2023/05/21 01:54:26;;;;;;;;;17.75;16.50;;;;;17.74;53.78;100993.31;5007612;28;45466;-67
2023/05/21 01:56:52;;;;;;;;;16.50;16.25;;;;;18.02;53.96;101057.31;5009621;28;45282;-67
2023/05/21 01:59:17;;;;;;;;;14.50;14.50;;;;;18.00;54.02;101056.44;5009292;28;60309;-68
2023/05/21 02:01:42;;;;;;;;;16.75;16.75;;;;;17.96;53.91;101054.59;5010390;28;45319;-68
2023/05/21 02:04:08;;;;;;;;;16.50;14.75;;;;;17.95;54.17;101051.91;4990408;28;45071;-68
2023/05/21 02:06:34;;;;;;;;;16.50;15.50;;;;;17.97;54.20;101059.13;5000283;28;46468;-69
2023/05/21 02:09:01;;;;;;;;;18.75;16.25;;;;;17.97;54.13;101063.63;5007773;28;45004;-69
2023/05/21 02:11:26;;;;;;;;;16.00;14.25;;;;;17.97;54.00;101067.22;5012666;28;45018;-68
2023/05/21 02:13:53;;;;;;;;;18.75;17.00;;;;;17.91;54.21;101050.09;5012645;28;45237;-68
2023/05/21 02:16:18;;;;;;;;;21.75;16.50;;;;;17.61;54.21;100997.78;4991855;28;45583;-68
2023/05/21 02:18:45;;;;;;;;;17.50;13.50;;;;;17.87;54.28;101049.22;4996766;28;46355;-69
2023/05/21 02:21:10;;;;;;;;;25.00;19.50;;;;;17.83;54.37;101050.94;5009910;28;45068;-69
2023/05/21 02:23:36;;;;;;;;;21.25;15.00;;;;;17.85;54.65;101057.28;5009768;28;45096;-69
2023/05/21 02:26:02;;;;;;;;;22.50;16.25;;;;;17.86;54.39;101058.16;5010001;28;46194;-68
2023/05/21 02:28:28;;;;;;;;;24.75;23.75;;;;;17.91;54.82;101060.91;5009467;28;45456;-68
2023/05/21 02:30:54;;;;;;;;;22.50;19.00;;;;;17.82;54.39;101049.16;5009720;28;45572;-68
2023/05/21 02:33:20;;;;;;;;;19.00;19.00;;;;;17.89;54.58;101065.44;4990385;28;45275;-68
2023/05/21 02:35:46;;;;;;;;;19.00;16.25;;;;;17.92;54.25;101066.34;5012404;28;45242;-68
2023/05/21 02:38:12;;;;;;;;;16.25;15.00;;;;;17.93;54.64;101060.00;5011761;28;45041;-68
2023/05/21 02:40:38;;;;;;;;;16.75;13.25;;;;;17.84;54.72;101050.06;5010680;28;45097;-68
2023/05/21 02:43:03;;;;;;;;;23.25;17.75;;;;;17.94;54.37;101056.41;4999882;28;45026;-68
2023/05/21 02:45:28;;;;;;;;;12.00;12.00;;;;;17.81;53.96;101035.66;5007275;28;45165;-68
2023/05/21 02:47:54;;;;;;;;;15.75;14.25;;;;;17.97;54.41;101058.22;5010148;28;45016;-67
2023/05/21 02:50:21;;;;;;;;;16.00;13.50;;;;;17.98;54.07;101060.94;5006420;28;45003;-68
2023/05/21 02:52:46;;;;;;;;;17.50;15.75;;;;;17.98;53.94;101054.59;5012259;28;45005;-67
2023/05/21 02:55:11;;;;;;;;;22.00;19.50;;;;;18.00;54.12;101064.53;5010596;28;45609;-68
2023/05/21 02:57:37;;;;;;;;;22.00;22.00;;;;;17.99;54.33;101067.25;5010937;28;45143;-67
2023/05/21 03:00:04;;;;;;;;;25.00;22.25;;;;;17.96;54.51;101059.13;5010542;28;45073;-67
2023/05/21 03:02:30;;;;;;;;;21.00;17.75;;;;;17.93;54.12;101056.41;5011790;28;45087;-67
2023/05/21 03:04:55;;;;;;;;;18.75;17.25;;;;;17.91;54.67;101063.63;5011920;28;45049;-68
2023/05/21 03:07:21;;;;;;;;;23.75;18.75;;;;;17.82;54.71;101048.28;4993121;28;45035;-68
2023/05/21 03:09:46;;;;;;;;;20.00;17.50;;;;;17.81;54.61;101057.28;5011463;28;45086;-67
2023/05/21 03:12:12;;;;;;;;;19.25;17.50;;;;;17.76;55.20;101053.66;5011614;28;45191;-67
2023/05/21 03:14:37;;;;;;;;;21.00;19.75;;;;;17.68;54.89;101051.81;5008212;28;45983;-67
2023/05/21 03:17:04;;;;;;;;;17.75;16.50;;;;;17.65;55.14;101049.16;5009558;28;44989;-68
2023/05/21 03:19:33;;;;;;;;;19.50;17.50;;;;;17.73;55.33;101061.75;5011184;28;45379;-67
2023/05/21 03:22:00;;;;;;;;;26.50;20.00;;;;;17.69;54.72;101068.97;5010441;28;45125;-67
2023/05/21 03:24:26;;;;;;;;;18.50;17.25;;;;;17.56;55.06;101049.09;5010421;28;45390;-67
2023/05/21 03:26:51;;;;;;;;;23.25;21.75;;;;;17.59;55.17;101070.75;5011511;28;45188;-67
2023/05/21 03:29:16;;;;;;;;;20.25;19.00;;;;;17.57;55.32;101072.53;5010336;28;58589;-67
2023/05/21 03:31:42;;;;;;;;;20.00;17.75;;;;;17.57;55.11;101085.13;5011079;28;45265;-67
2023/05/21 03:34:07;;;;;;;;;19.75;19.00;;;;;17.55;55.69;101081.53;4992607;28;45332;-67
2023/05/21 03:36:33;;;;;;;;;19.50;17.50;;;;;17.58;55.52;101081.53;5008242;28;45646;-67
2023/05/21 03:38:58;;;;;;;;;24.75;20.50;;;;;17.54;55.87;101068.91;5009874;28;45078;-67
2023/05/21 03:41:23;;;;;;;;;19.25;17.00;;;;;17.53;55.57;101072.53;5010751;28;45121;-67
2023/05/21 03:43:49;;;;;;;;;17.75;16.00;;;;;17.52;55.41;101073.41;4990371;28;46645;-67
2023/05/21 03:46:14;;;;;;;;;20.75;18.75;;;;;17.44;55.99;101068.91;5008134;28;45070;-67
2023/05/21 03:48:39;;;;;;;;;28.00;21.75;;;;;17.55;55.29;101087.81;5011537;28;48165;-67
2023/05/21 03:51:06;;;;;;;;;28.50;18.25;;;;;17.50;55.70;101082.44;5012214;28;45184;-66
2023/05/21 03:53:32;;;;;;;;;20.25;18.75;;;;;17.44;55.90;101070.66;4999581;28;45516;-67
2023/05/21 03:55:57;;;;;;;;;20.75;17.25;;;;;17.45;55.50;101080.59;5010628;28;45224;-67
2023/05/21 03:58:23;;;;;;;;;24.25;17.25;;;;;17.37;55.70;101072.44;5010300;28;60659;-67
2023/05/21 04:00:49;;;;;;;;;19.25;16.00;;;;;17.44;55.98;101084.19;5011515;28;45049;-67
2023/05/21 04:03:15;;;;;;;;;22.00;21.50;;;;;17.38;55.93;101073.38;5013794;28;45550;-67
2023/05/21 04:05:43;;;;;;;;;20.50;19.75;;;;;17.42;56.24;101086.91;5013783;28;45091;-67
2023/05/21 04:08:09;;;;;;;;;22.50;18.50;;;;;17.43;56.04;101091.38;5014049;28;45104;-67
2023/05/21 04:10:34;;;;;;;;;26.75;21.25;;;;;17.38;55.96;101085.06;5011019;28;45178;-67
2023/05/21 04:13:00;;;;;;;;;20.75;18.75;;;;;17.36;56.08;101091.38;5007806;28;45518;-67
2023/05/21 04:15:26;;;;;;;;;22.25;19.50;;;;;17.33;56.35;101099.47;5012003;28;45287;-66
2023/05/21 04:17:52;;;;;;;;;24.00;21.00;;;;;17.29;56.22;101095.81;5012059;28;45079;-67
2023/05/21 04:20:17;;;;;;;;;17.75;17.50;;;;;17.29;56.68;101101.22;5010554;28;45140;-68
2023/05/21 04:22:42;;;;;;;;;23.25;18.50;;;;;17.28;56.84;101100.34;5011702;28;45423;-67
2023/05/21 04:25:08;;;;;;;;;23.25;20.25;;;;;17.27;56.15;101100.31;5011475;28;45380;-68
2023/05/21 04:27:35;;;;;;;;;19.75;18.50;;;;;17.25;56.63;101099.41;5009989;28;45128;-67
2023/05/21 04:30:00;;;;;;;;;25.25;20.50;;;;;17.27;56.73;101101.25;5011933;28;45006;-67
2023/05/21 04:32:27;;;;;;;;;19.50;19.50;;;;;17.26;56.70;101102.13;5013939;28;45391;-67
2023/05/21 04:34:52;;;;;;;;;28.75;23.00;;;;;17.25;56.54;101112.94;5013849;28;45089;-68
2023/05/21 04:37:18;;;;;;;;;58.75;43.00;;;;;17.24;56.39;101103.94;5012940;28;45026;-67
2023/05/21 04:39:43;;;;;;;;;18.00;16.00;;;;;17.25;56.93;101110.22;5013572;28;44995;-68
2023/05/21 04:42:12;;;;;;;;;25.75;24.25;;;;;17.28;56.67;101113.84;5013221;28;45133;-67
2023/05/21 04:44:39;;;;;;;;;21.50;17.50;;;;;17.31;56.60;101112.97;5012172;28;45534;-67
2023/05/21 04:47:04;;;;;;;;;21.75;20.25;;;;;17.33;56.75;101107.56;5010726;28;44916;-67
2023/05/21 04:49:30;;;;;;;;;23.50;21.25;;;;;17.31;56.64;101112.97;5011308;28;45006;-67
2023/05/21 04:51:55;;;;;;;;;23.75;20.00;;;;;17.32;56.59;101117.44;5011414;28;46090;-67
2023/05/21 04:54:21;;;;;;;;;23.25;21.00;;;;;17.34;55.99;101122.84;5011279;28;45085;-67
2023/05/21 04:56:46;;;;;;;;;27.50;25.75;;;;;17.34;56.45;101122.84;5014009;28;45215;-66
2023/05/21 04:59:12;;;;;;;;;20.00;19.50;;;;;17.34;56.26;101121.09;5013953;28;45198;-67
2023/05/21 05:01:38;;;;;;;;;22.25;20.75;;;;;17.27;55.96;101103.94;5001257;28;45385;-67
2023/05/21 05:04:04;;;;;;;;;26.00;24.75;;;;;17.33;56.30;101119.25;5011968;28;45190;-67
2023/05/21 05:06:29;;;;;;;;;26.25;23.25;;;;;17.35;55.98;101112.06;4993751;28;45533;-66
2023/05/21 05:08:55;;;;;;;;;23.50;22.75;;;;;17.35;55.90;101109.34;5007092;28;45326;-66
2023/05/21 05:11:21;;;;;;;;;25.00;20.50;;;;;17.41;55.69;101112.09;5010841;28;45748;-66
2023/05/21 05:13:46;;;;;;;;;23.00;20.75;;;;;17.38;55.91;101101.28;5012670;28;45031;-67
2023/05/21 05:16:13;;;;;;;;;22.75;21.50;;;;;17.44;55.90;101108.47;5013244;28;45035;-67
2023/05/21 05:18:38;;;;;;;;;23.75;21.50;;;;;17.49;55.94;101114.84;5011106;28;45441;-67
2023/05/21 05:21:04;;;;;;;;;17.75;17.25;;;;;17.50;55.54;101105.81;5012643;28;45471;-67
2023/05/21 05:23:29;;;;;;;;;30.00;25.25;;;;;17.51;55.60;101102.22;5012354;28;45030;-69
2023/05/21 05:25:55;;;;;;;;;25.00;21.75;;;;;17.60;55.64;101107.66;5012818;28;45002;-68
2023/05/21 05:28:20;;;;;;;;;23.75;21.00;;;;;17.61;55.46;101109.47;5013629;28;45054;-68
2023/05/21 05:30:46;;;;;;;;;22.50;20.00;;;;;17.63;55.80;101107.66;5011529;28;45097;-67
2023/05/21 05:33:11;;;;;;;;;22.00;19.75;;;;;17.68;55.10;101118.50;5002063;28;44868;-67
2023/05/21 05:35:37;;;;;;;;;22.00;20.00;;;;;17.71;55.23;101110.41;5010728;28;45118;-67
2023/05/21 05:38:02;;;;;;;;;19.75;19.75;;;;;17.67;54.98;101104.09;5012028;28;45141;-67
2023/05/21 05:40:27;;;;;;;;;26.00;21.00;;;;;17.74;55.27;101107.69;5010630;28;45145;-67
2023/05/21 05:42:53;;;;;;;;;23.75;22.25;;;;;17.80;55.18;101114.91;5011399;28;53138;-67
2023/05/21 05:45:19;;;;;;;;;26.25;23.50;;;;;17.78;54.87;101120.31;5009895;28;44955;-67
2023/05/21 05:47:45;;;;;;;;;28.75;23.50;;;;;17.83;55.00;101118.50;5007719;28;45376;-67
2023/05/21 05:50:10;;;;;;;;;22.75;20.25;;;;;17.86;54.79;101125.75;5003414;28;45430;-67
2023/05/21 05:52:36;;;;;;;;;29.25;22.25;;;;;17.86;54.82;101117.63;5010272;28;44987;-67
2023/05/21 05:55:01;;;;;;;;;31.25;24.25;;;;;17.92;54.46;101119.47;5010578;28;45156;-68
2023/05/21 05:57:26;;;;;;;;;31.25;24.25;;;;;17.95;54.36;101117.72;4989950;28;45279;-67
2023/05/21 05:59:52;;;;;;;;;21.50;20.50;;;;;18.01;54.25;101125.81;5012602;28;45685;-67
2023/05/21 06:02:17;;;;;;;;;17.00;15.25;;;;;18.01;54.20;101124.91;5012423;28;44967;-66
2023/05/21 06:04:43;;;;;;;;;23.50;21.00;;;;;18.02;54.34;101114.09;5012833;28;45477;-70
2023/05/21 06:07:08;;;;;;;;;25.25;23.75;;;;;17.99;54.35;101105.97;5012835;28;45046;-68
2023/05/21 06:09:33;;;;;;;;;20.25;19.50;;;;;18.05;54.05;101119.50;5009351;28;50069;-68
2023/05/21 06:11:59;;;;;;;;;20.25;18.75;;;;;18.05;54.29;101130.34;5012379;28;45146;-67
2023/05/21 06:14:24;;;;;;;;;22.00;20.00;;;;;18.11;54.22;101120.41;5009256;28;48995;-67
2023/05/21 06:16:49;;;;;;;;;26.00;21.25;;;;;18.11;54.29;101120.41;5010483;28;45344;-68
2023/05/21 06:19:15;;;;;;;;;30.25;22.25;;;;;18.12;53.98;101119.53;5011533;28;45144;-67
2023/05/21 06:21:40;;;;;;;;;18.00;18.00;;;;;18.10;54.26;101126.72;5009075;28;45283;-68
2023/05/21 06:24:05;;;;;;;;;23.25;19.75;;;;;18.12;54.55;101122.25;5011000;28;45444;-69
2023/05/21 06:26:31;;;;;;;;;20.75;20.50;;;;;18.15;54.18;101116.81;5011485;28;44915;-68
2023/05/21 06:28:56;;;;;;;;;26.25;21.50;;;;;18.19;53.99;101110.50;4990464;28;47667;-69
2023/05/21 06:31:21;;;;;;;;;27.25;21.00;;;;;18.19;53.76;101115.94;5011633;28;45063;-70
2023/05/21 06:33:48;;;;;;;;;26.00;22.25;;;;;18.29;53.66;101122.25;5011423;28;45081;-69
2023/05/21 06:36:13;;;;;;;;;30.00;28.50;;;;;18.42;53.63;101137.56;5007819;28;45367;-69
2023/05/21 06:38:39;;;;;;;;;28.50;19.75;;;;;18.51;53.29;101124.06;5006626;28;45574;-68
2023/05/21 06:41:05;;;;;;;;;23.25;21.50;;;;;18.62;53.16;101123.16;5003524;28;45348;-68
2023/05/21 06:43:30;;;;;;;;;22.00;20.50;;;;;18.71;52.77;101120.41;5010601;28;45193;-68
2023/05/21 06:45:55;;;;;;;;;22.25;19.50;;;;;18.69;52.17;101106.91;5011559;28;45177;-68
2023/05/21 06:48:21;;;;;;;;;26.75;22.75;;;;;18.84;52.19;101116.84;5011242;28;59364;-69
2023/05/21 06:50:46;;;;;;;;;25.25;20.75;;;;;18.93;51.74;101114.09;5011818;28;45113;-68
2023/05/21 06:53:15;;;;;;;;;23.00;20.00;;;;;19.01;51.63;101121.31;5005895;28;45369;-68
2023/05/21 06:55:43;;;;;;;;;21.50;19.50;;;;;19.11;51.30;101117.69;4981536;28;45035;-68
2023/05/21 06:58:08;;;;;;;;;23.75;20.25;;;;;19.15;51.14;101111.31;5009113;28;45220;-68
2023/05/21 07:00:33;;;;;;;;;20.75;19.75;;;;;19.24;51.24;101111.31;5008863;28;45168;-69
2023/05/21 07:02:59;;;;;;;;;28.75;22.75;;;;;19.00;51.01;101062.66;5007633;28;54076;-69
2023/05/21 07:05:24;;;;;;;;;21.25;18.75;;;;;19.33;51.11;101119.38;5005948;28;45434;-69
2023/05/21 07:07:49;;;;;;;;;31.50;24.75;;;;;19.39;50.96;101114.88;5009846;28;45654;-69
2023/05/21 07:10:15;;;;;;;;;24.50;20.25;;;;;19.40;50.74;101111.25;5007944;28;45462;-69
2023/05/21 07:12:40;;;;;;;;;19.75;17.00;;;;;19.36;51.10;101096.81;4999122;28;45490;-68
2023/05/21 07:15:06;;;;;;;;;28.75;24.25;;;;;19.40;51.06;101114.88;4992596;28;44968;-68
2023/05/21 07:17:32;;;;;;;;;19.50;18.50;;;;;19.47;50.88;101116.63;4983831;28;46203;-68
2023/05/21 07:19:57;;;;;;;;;20.25;20.25;;;;;19.52;51.29;101120.22;5007905;28;45027;-68
2023/05/21 07:22:23;;;;;;;;;18.50;18.00;;;;;19.53;50.72;101123.81;5009123;28;45137;-70
2023/05/21 07:24:48;;;;;;;;;25.75;19.50;;;;;19.61;50.38;101126.50;5009863;28;45113;-68
2023/05/21 07:27:13;;;;;;;;;19.00;19.00;;;;;19.61;50.07;101121.97;5008339;28;46643;-68
2023/05/21 07:29:39;;;;;;;;;19.50;18.25;;;;;19.51;50.17;101114.81;4999235;28;48590;-70
2023/05/21 07:32:04;;;;;;;;;20.50;17.75;;;;;19.51;50.41;101117.50;5011343;28;45034;-68
2023/05/21 07:34:29;;;;;;;;;22.25;19.75;;;;;19.59;50.30;101114.78;5011832;28;45155;-70
2023/05/21 07:36:55;;;;;;;;;23.75;21.25;;;;;19.57;50.58;101105.72;4995705;28;59909;-69
2023/05/21 07:39:20;;;;;;;;;23.75;22.50;;;;;19.70;50.25;101119.22;5012109;28;56751;-69
2023/05/21 07:41:45;;;;;;;;;26.00;22.00;;;;;19.74;50.32;101116.50;5013433;28;45066;-69
2023/05/21 07:44:10;;;;;;;;;19.25;17.25;;;;;19.82;50.12;101115.59;5014521;28;45110;-68
2023/05/21 07:46:36;;;;;;;;;19.75;19.50;;;;;19.87;49.63;101121.88;5002000;28;57649;-72
2023/05/21 07:49:01;;;;;;;;;22.75;21.00;;;;;19.94;49.57;101119.13;5025435;28;49614;-70
2023/05/21 07:51:27;;;;;;;;;26.75;21.50;;;;;19.98;49.27;101108.25;5014816;28;45101;-69
2023/05/21 07:53:52;;;;;;;;;19.25;16.00;;;;;20.08;49.01;101109.09;5010445;28;45117;-68
2023/05/21 07:56:18;;;;;;;;;24.50;20.50;;;;;20.12;48.66;101120.81;5013594;28;46240;-68
2023/05/21 07:58:44;;;;;;;;;23.00;19.75;;;;;20.05;48.44;101109.13;5012431;28;45056;-62
2023/05/21 08:01:10;;;;;;;;;17.75;13.75;;;;;20.05;48.77;101115.44;5012853;28;45078;-61
2023/05/21 08:03:35;;;;;;;;;25.75;20.75;;;;;20.09;48.53;101113.59;4999586;28;45269;-62
2023/05/21 08:06:01;;;;;;;;;11.25;11.25;;;;;20.17;48.74;101109.00;4994874;28;57774;-63
2023/05/21 08:08:26;;;;;;;;;18.75;17.00;;;;;20.22;48.30;101114.41;4981541;28;45461;-64
2023/05/21 08:10:51;;;;;;;;;22.25;19.75;;;;;20.20;48.14;101106.28;4998754;28;45240;-63
2023/05/21 08:13:17;;;;;;;;;17.33;14.33;;;;;20.31;48.15;101110.72;4996243;28;45633;-61
2023/05/21 08:15:42;;;;;;;;;17.00;13.00;;;;;20.36;48.03;101101.63;4997002;28;45807;-62
2023/05/21 08:18:08;;;;;;;;;23.00;18.33;;;;;20.44;47.75;101106.97;4996988;28;45690;-62
2023/05/21 08:20:33;;;;;;;;;21.67;18.67;;;;;20.49;47.82;101098.81;4993614;28;45565;-61
2023/05/21 08:22:59;;;;;;;;;22.00;17.00;;;;;20.61;47.32;101104.13;5002409;28;45821;-61
2023/05/21 08:25:25;;;;;;;;;23.75;18.00;;;;;20.71;46.98;101105.88;4996037;28;46073;-61
2023/05/21 08:27:51;;;;;;;;;17.00;15.67;;;;;20.71;46.54;101100.44;5001989;28;45811;-60
2023/05/21 08:30:16;;;;;;;;;20.33;19.67;;;;;20.74;46.51;101091.34;4997336;28;45444;-62
2023/05/21 08:32:42;;;;;;;;;12.67;11.00;;;;;20.68;46.77;101089.59;4979029;28;45570;-62
2023/05/21 08:35:08;;;;;;;;;13.00;13.00;;;;;20.68;46.70;101078.75;4969921;28;48049;-67
2023/05/21 08:37:33;;;;;;;;;13.00;13.00;;;;;20.70;46.08;101084.16;4998930;28;45288;-61
2023/05/21 08:39:59;;;;;;;;;16.00;14.67;;;;;20.66;46.20;101086.03;4994511;28;45881;-63
2023/05/21 08:42:49;;;;;;;;;13.33;13.33;;;;;20.79;45.87;101092.22;4986527;28;45330;-60
2023/05/21 08:45:20;;;;;;;;;14.33;12.67;;;;;20.88;45.67;101089.41;5011788;28;45276;-66
2023/05/21 08:47:45;;;;;;;;;11.33;11.33;;;;;20.91;45.92;101092.09;5010481;28;45077;-68
2023/05/21 08:50:18;;;;;;;;;14.67;11.67;;;;;20.84;45.50;101074.06;4987715;28;45456;-68
2023/05/21 08:52:43;;;;;;;;;12.33;12.33;;;;;20.96;45.57;101078.47;5011842;28;45651;-69
2023/05/21 08:55:09;;;;;;;;;10.00;8.33;;;;;21.13;45.40;101086.41;5013046;28;45520;-66
2023/05/21 08:57:35;;;;;;;;;7.67;7.67;;;;;21.21;45.16;101086.31;5012731;28;45258;-66
2023/05/21 09:00:03;;;;;;;;;11.67;11.67;;;;;21.21;44.59;101081.78;5010035;28;45331;-69
2023/05/21 09:02:32;;;;;;;;;11.67;10.67;;;;;21.27;44.14;101083.53;5011581;28;45245;-67
2023/05/21 09:05:01;;;;;;;;;11.33;11.33;;;;;21.34;44.58;101083.41;5012300;28;46021;-68
2023/05/21 09:07:28;;;;;;;;;18.33;11.00;;;;;21.48;44.46;101086.00;5008476;28;45224;-69
2023/05/21 09:10:02;;;;;;;;;9.67;9.00;;;;;21.60;43.90;101090.38;5011673;28;45487;-67
2023/05/21 09:12:28;;;;;;;;;11.00;10.00;;;;;21.64;43.35;101077.63;5012890;28;45118;-67
2023/05/21 09:14:56;;;;;;;;;11.33;10.33;;;;;21.69;44.22;101065.75;5012278;28;45162;-68
2023/05/21 09:17:23;;;;;;;;;9.00;9.00;;;;;21.78;43.29;101058.38;5011684;28;45153;-69
2023/05/21 09:20:25;;;;;;;;;12.67;12.00;;;;;21.91;43.23;101081.78;5011356;28;45054;-68
2023/05/21 09:22:51;;;;;;;;;13.00;12.00;;;;;21.95;43.53;101085.34;4959036;28;45390;-64
2023/05/21 09:25:26;;;;;;;;;13.33;12.33;;;;;21.98;43.09;101082.59;5010250;28;45753;-68
2023/05/21 09:27:52;;;;;;;;;18.67;14.00;;;;;22.05;43.47;101074.28;5004358;28;45408;-65
2023/05/21 09:30:18;;;;;;;;;16.00;14.67;;;;;22.16;43.27;101086.81;5012641;28;44874;-62
2023/05/21 09:32:44;;;;;;;;;13.00;13.00;;;;;22.21;42.93;101080.38;4978724;28;45150;-63
2023/05/21 09:35:13;;;;;;;;;17.67;16.00;;;;;22.24;43.09;101082.13;5011785;28;45139;-62
2023/05/21 09:37:43;;;;;;;;;11.33;10.33;;;;;22.28;42.82;101081.19;4990769;28;45072;-72
2023/05/21 09:40:09;;;;;;;;;16.33;14.33;;;;;22.26;42.48;101077.59;4997101;28;45286;-65
2023/05/21 09:42:35;;;;;;;;;30.25;28.00;;;;;22.25;43.21;101075.78;5012827;28;45157;-66
2023/05/21 09:45:00;;;;;;;;;19.67;16.67;;;;;22.34;43.12;101075.66;5011715;28;45911;-67
2023/05/21 09:47:25;;;;;;;;;17.00;15.00;;;;;22.43;43.64;101075.50;5012800;28;45093;-71
2023/05/21 09:49:51;;;;;;;;;16.33;15.00;;;;;22.25;43.38;101030.41;5012790;28;50977;-70
2023/05/21 09:52:24;;;;;;;;;20.33;16.33;;;;;22.53;42.83;101070.78;5013021;28;45277;-68
2023/05/21 09:54:51;;;;;;;;;14.67;14.67;;;;;22.55;42.56;101066.19;5011486;28;45511;-70
2023/05/21 09:57:22;;;;;;;;;22.00;20.67;;;;;22.55;42.50;101054.41;4999970;28;45047;-69
2023/05/21 09:59:49;;;;;;;;;21.00;16.00;;;;;22.54;42.83;101044.47;5012150;28;44939;-69
2023/05/21 10:02:18;;;;;;;;;12.67;12.67;;;;;22.71;42.47;101055.03;5011255;28;44992;-66
2023/05/21 10:04:47;;;;;;;;;19.33;17.33;;;;;22.77;42.17;101060.38;5025306;28;45305;-70
2023/05/21 10:07:17;;;;;;;;;21.33;18.00;;;;;22.82;41.67;101050.28;5012691;28;45113;-70
2023/05/21 10:09:47;;;;;;;;;13.33;13.33;;;;;22.82;41.63;101044.84;5012321;28;45196;-71
2023/05/21 10:12:13;;;;;;;;;15.00;13.67;;;;;22.88;42.04;101049.25;5008263;28;44991;-63
2023/05/21 10:14:41;;;;;;;;;15.00;14.33;;;;;22.63;41.97;100998.88;5009121;28;45754;-65
2023/05/21 10:17:08;;;;;;;;;17.67;16.00;;;;;22.94;42.05;101046.41;5011794;28;45078;-63
2023/05/21 10:19:35;;;;;;;;;14.67;14.67;;;;;22.91;42.27;101036.47;5011145;28;44872;-62
2023/05/21 10:22:03;;;;;;;;;14.67;14.67;;;;;22.91;41.33;101024.69;5010439;28;45186;-65
2023/05/21 10:24:28;;;;;;;;;18.33;16.67;;;;;23.02;41.29;101043.56;5009536;28;45702;-67
2023/05/21 10:26:54;;;;;;;;;22.00;18.33;;;;;22.99;41.22;101026.31;5011409;28;45343;-63
2023/05/21 10:29:21;;;;;;;;;13.33;13.33;;;;;23.14;40.82;101052.38;5007717;28;45093;-63
2023/05/21 10:31:50;;;;;;;;;18.00;15.67;;;;;23.07;40.42;101041.66;5001807;28;45226;-66
2023/05/21 10:34:15;;;;;;;;;15.00;15.00;;;;;23.09;40.45;101042.53;5011190;28;45985;-69
2023/05/21 10:36:42;;;;;;;;;21.33;19.00;;;;;23.07;40.37;101023.47;5010764;28;45128;-68
2023/05/21 10:39:11;;;;;;;;;17.67;14.67;;;;;23.27;40.12;101035.78;5010505;28;44962;-64
2023/05/21 10:41:54;;;;;;;;;15.00;15.00;;;;;23.34;39.79;101026.53;5011787;28;45194;-67
2023/05/21 10:44:32;;;;;;;;;17.00;14.67;;;;;23.50;39.93;101033.44;5011754;28;46127;-68
2023/05/21 10:47:12;;;;;;;;;18.00;18.00;;;;;23.61;39.51;101033.19;5002066;28;45044;-68
2023/05/21 10:49:55;;;;;;;;;15.33;12.67;;;;;23.63;39.37;101019.53;5011885;28;45234;-70
2023/05/21 10:52:42;;;;;;;;;17.00;15.67;;;;;23.73;38.80;101027.44;5010703;28;45306;-65
2023/05/21 10:55:25;;;;;;;;;14.00;14.00;;;;;23.74;39.71;101028.31;5011361;28;45206;-70
2023/05/21 10:58:11;;;;;;;;;16.33;14.67;;;;;23.73;39.65;101035.63;4999711;28;44995;-70
2023/05/21 11:00:37;;;;;;;;;15.67;15.67;;;;;23.64;39.93;101015.84;4999707;28;45030;-64
2023/05/21 11:03:03;;;;;;;;;13.00;13.00;;;;;23.63;39.82;101011.34;5003244;28;45119;-63
2023/05/21 11:05:52;;;;;;;;;19.33;15.67;;;;;23.55;40.16;101026.03;5011786;28;45739;-64
2023/05/21 11:08:36;;;;;;;;;17.00;15.67;;;;;23.60;40.02;101033.22;4988971;28;45134;-71